Time;durP1;ratioP1;P1;durP2;ratioP2;P2;SDS_P1;SDS_P2;PMS_P1;PMS_P2;Temp;Humidity;BMP_temperature;BMP_pressure;BME280_temperature;BME280_humidity;BME280_pressure;Samples;Min_cycle;Max_cycle;Signal;HPM_P1;HPM_P2
2021/11/23 00:01:52;;;;;;;;;;;0.80;99.90;;;;;;5034472;28;19925;-78
2021/11/23 00:04:18;;;;;;;;;;;0.80;99.90;;;;;;5033449;28;19929;-78
2021/11/23 00:06:45;;;;;;;;;;;0.80;99.90;;;;;;5022829;28;20291;-78
2021/11/23 00:09:11;;;;;;;;;;;0.80;99.90;;;;;;5030613;28;20371;-77
2021/11/23 00:11:39;;;;;;;;;;;0.80;99.90;;;;;;5024665;28;19983;-77
2021/11/23 00:14:06;;;;;;;;;;;0.80;99.90;;;;;;5020993;28;19932;-78
2021/11/23 00:16:33;;;;;;;;;;;0.70;99.90;;;;;;5028668;28;20016;-77
2021/11/23 00:19:03;;;;;;;;;;;0.80;99.90;;;;;;5020832;28;20407;-78
2021/11/23 00:21:29;;;;;;;;;;;0.80;99.90;;;;;;5024289;28;19925;-77
2021/11/23 00:23:56;;;;;;;;;;;0.80;99.90;;;;;;5026983;28;19933;-76
2021/11/23 00:26:23;;;;;;;;;;;0.70;99.90;;;;;;5025882;28;20019;-77
2021/11/23 00:28:51;;;;;;;;;;;0.70;99.90;;;;;;5032625;28;19925;-76
2021/11/23 00:31:17;;;;;;;;;;;0.70;99.90;;;;;;5029486;28;19933;-77
2021/11/23 00:33:44;;;;;;;;;;;0.70;99.90;;;;;;5021985;28;19932;-77
2021/11/23 00:36:11;;;;;;;;;;;0.60;99.90;;;;;;5025254;28;19933;-77
2021/11/23 00:38:41;;;;;;;;;;;0.50;99.90;;;;;;5032278;28;19951;-78
2021/11/23 00:41:08;;;;;;;;;;;0.40;99.90;;;;;;5034069;28;19925;-77
2021/11/23 00:43:35;;;;;;;;;;;0.40;99.90;;;;;;5024273;28;19925;-79
2021/11/23 00:46:03;;;;;;;;;;;0.40;99.90;;;;;;5020809;28;20012;-78
2021/11/23 00:48:29;;;;;;;;;;;0.50;99.90;;;;;;5019565;28;19925;-78
2021/11/23 00:50:57;;;;;;;;;;;0.50;99.90;;;;;;5028453;28;19925;-79
2021/11/23 00:53:24;;;;;;;;;;;0.50;99.90;;;;;;5028671;28;19980;-77
2021/11/23 00:55:50;;;;;;;;;;;0.50;99.90;;;;;;5033210;28;20008;-78
2021/11/23 00:58:17;;;;;;;;;;;0.60;99.90;;;;;;5017715;28;19926;-77
2021/11/23 01:00:44;;;;;;;;;;;0.60;99.90;;;;;;5028682;28;19925;-77
2021/11/23 01:03:12;;;;;;;;;;;0.60;99.90;;;;;;5030729;28;20015;-77
2021/11/23 01:05:39;;;;;;;;;;;0.50;99.90;;;;;;5021636;28;19937;-77
2021/11/23 01:08:05;;;;;;;;;;;0.50;99.90;;;;;;5022179;28;19930;-77
2021/11/23 01:10:32;;;;;;;;;;;0.50;99.90;;;;;;5031800;28;19925;-77
2021/11/23 01:12:59;;;;;;;;;;;0.40;99.90;;;;;;5028671;28;19939;-78
2021/11/23 01:15:25;;;;;;;;;;;0.40;99.90;;;;;;5022826;28;19983;-77
2021/11/23 01:17:52;;;;;;;;;;;0.40;99.90;;;;;;5033327;28;19932;-78
2021/11/23 01:20:21;;;;;;;;;;;0.40;99.90;;;;;;5037236;28;20012;-80
2021/11/23 01:22:48;;;;;;;;;;;0.40;99.90;;;;;;5040550;28;19967;-79
2021/11/23 01:25:15;;;;;;;;;;;0.40;99.90;;;;;;5035453;28;19975;-78
2021/11/23 01:27:41;;;;;;;;;;;0.40;99.90;;;;;;5035975;28;19933;-79
2021/11/23 01:30:09;;;;;;;;;;;0.30;99.90;;;;;;5037823;28;20027;-80
2021/11/23 01:32:36;;;;;;;;;;;0.30;99.90;;;;;;5035811;28;19976;-79
2021/11/23 01:35:03;;;;;;;;;;;0.30;99.90;;;;;;5043361;28;19988;-80
2021/11/23 01:37:31;;;;;;;;;;;0.30;99.90;;;;;;5038345;28;20003;-79
2021/11/23 01:39:58;;;;;;;;;;;0.30;99.90;;;;;;5026785;28;19929;-78
2021/11/23 01:42:24;;;;;;;;;;;0.30;99.90;;;;;;5028389;28;19932;-79
2021/11/23 01:44:51;;;;;;;;;;;0.30;99.90;;;;;;5021151;28;20403;-78
2021/11/23 01:47:17;;;;;;;;;;;0.30;99.90;;;;;;5020813;28;19932;-78
2021/11/23 01:49:44;;;;;;;;;;;0.30;99.90;;;;;;5027469;28;19932;-78
2021/11/23 01:52:11;;;;;;;;;;;0.20;99.90;;;;;;5026682;28;20006;-78
2021/11/23 01:54:40;;;;;;;;;;;0.20;99.90;;;;;;5034753;28;19925;-79
2021/11/23 01:57:07;;;;;;;;;;;0.20;99.90;;;;;;5035151;28;19925;-79
2021/11/23 01:59:34;;;;;;;;;;;0.20;99.90;;;;;;5029427;28;19981;-78
2021/11/23 02:02:01;;;;;;;;;;;0.20;99.90;;;;;;5031417;28;19956;-79
2021/11/23 02:04:28;;;;;;;;;;;0.20;99.90;;;;;;5033345;28;19932;-78
2021/11/23 02:06:55;;;;;;;;;;;0.30;99.90;;;;;;5034333;28;19957;-78
2021/11/23 02:09:27;;;;;;;;;;;0.20;99.90;;;;;;5026770;28;20004;-77
2021/11/23 02:11:55;;;;;;;;;;;0.20;99.90;;;;;;5030117;28;20475;-78
2021/11/23 02:14:22;;;;;;;;;;;0.20;99.90;;;;;;5019741;28;19926;-78
2021/11/23 02:16:49;;;;;;;;;;;0.20;99.90;;;;;;5031074;28;20308;-78
2021/11/23 02:19:16;;;;;;;;;;;0.20;99.90;;;;;;5027176;28;19939;-78
2021/11/23 02:21:44;;;;;;;;;;;0.10;99.90;;;;;;5027013;28;20062;-78
2021/11/23 02:24:10;;;;;;;;;;;0.00;99.90;;;;;;5030373;28;19933;-77
2021/11/23 02:26:37;;;;;;;;;;;0.00;99.90;;;;;;5022191;28;20513;-77
2021/11/23 02:29:03;;;;;;;;;;;-0.10;99.90;;;;;;5023143;28;20019;-77
2021/11/23 02:31:30;;;;;;;;;;;-0.10;99.90;;;;;;5026434;28;19931;-78
2021/11/23 02:33:57;;;;;;;;;;;0.00;99.90;;;;;;5022610;28;19976;-78
2021/11/23 02:36:24;;;;;;;;;;;0.00;99.90;;;;;;5033000;28;19959;-79
2021/11/23 02:38:52;;;;;;;;;;;0.10;99.90;;;;;;5034791;28;19925;-79
2021/11/23 02:41:19;;;;;;;;;;;0.20;99.90;;;;;;5030646;28;20383;-79
2021/11/23 02:43:46;;;;;;;;;;;0.10;99.90;;;;;;5034053;28;20532;-79
2021/11/23 02:46:13;;;;;;;;;;;0.10;99.90;;;;;;5019042;28;20364;-79
2021/11/23 02:48:40;;;;;;;;;;;0.10;99.90;;;;;;5025646;28;19931;-79
2021/11/23 02:51:13;;;;;;;;;;;0.10;99.90;;;;;;5025996;28;19925;-78
2021/11/23 02:53:40;;;;;;;;;;;0.00;99.90;;;;;;5033381;28;19932;-78
2021/11/23 02:56:08;;;;;;;;;;;0.00;99.90;;;;;;5025230;28;20036;-78
2021/11/23 02:58:36;;;;;;;;;;;0.00;99.90;;;;;;5024449;28;19931;-79
2021/11/23 03:01:04;;;;;;;;;;;0.00;99.90;;;;;;5023070;28;19933;-78
2021/11/23 03:03:31;;;;;;;;;;;0.00;99.90;;;;;;5025980;28;20292;-78
2021/11/23 03:05:58;;;;;;;;;;;0.00;99.90;;;;;;5025005;28;19925;-78
2021/11/23 03:08:25;;;;;;;;;;;0.00;99.90;;;;;;5021686;28;19976;-78
2021/11/23 03:10:52;;;;;;;;;;;-0.10;99.90;;;;;;5030110;28;19985;-78
2021/11/23 03:13:20;;;;;;;;;;;-0.10;99.90;;;;;;5028158;28;19925;-78
2021/11/23 03:15:47;;;;;;;;;;;-0.10;99.90;;;;;;5029855;28;20016;-80
2021/11/23 03:18:13;;;;;;;;;;;-0.10;99.90;;;;;;5039368;28;19926;-79
2021/11/23 03:20:40;;;;;;;;;;;-0.20;99.90;;;;;;5018104;28;19932;-78
2021/11/23 03:23:07;;;;;;;;;;;-0.20;99.90;;;;;;5020874;28;19968;-78
2021/11/23 03:25:34;;;;;;;;;;;-0.30;99.90;;;;;;5031362;28;19936;-78
2021/11/23 03:28:00;;;;;;;;;;;-0.30;99.90;;;;;;5046554;28;19935;-79
2021/11/23 03:30:30;;;;;;;;;;;-0.30;99.90;;;;;;5033937;28;19932;-78
2021/11/23 03:32:57;;;;;;;;;;;-0.40;99.90;;;;;;5028291;28;19925;-79
2021/11/23 03:35:24;;;;;;;;;;;-0.30;99.90;;;;;;5029880;28;19933;-79
2021/11/23 03:37:52;;;;;;;;;;;-0.30;99.90;;;;;;5027446;28;19925;-79
2021/11/23 03:40:19;;;;;;;;;;;-0.40;99.90;;;;;;5030697;28;19940;-79
2021/11/23 03:42:46;;;;;;;;;;;-0.50;99.90;;;;;;5031685;28;20265;-78
2021/11/23 03:45:12;;;;;;;;;;;-0.50;99.90;;;;;;5031226;28;19929;-79
2021/11/23 03:47:40;;;;;;;;;;;-0.30;99.90;;;;;;5034031;28;19925;-79
2021/11/23 03:50:09;;;;;;;;;;;-0.30;99.90;;;;;;5036574;28;19996;-78
2021/11/23 03:52:36;;;;;;;;;;;-0.30;99.90;;;;;;5031801;28;19925;-79
2021/11/23 03:55:04;;;;;;;;;;;-0.30;99.90;;;;;;5040622;28;19925;-78
2021/11/23 03:57:31;;;;;;;;;;;-0.20;99.90;;;;;;5035628;28;20380;-78
2021/11/23 03:59:57;;;;;;;;;;;-0.30;99.90;;;;;;5035425;28;19988;-78
2021/11/23 04:02:25;;;;;;;;;;;-0.30;99.90;;;;;;5031064;28;20020;-78
2021/11/23 04:04:53;;;;;;;;;;;-0.30;99.90;;;;;;5027263;28;19933;-78
2021/11/23 04:07:20;;;;;;;;;;;-0.20;99.90;;;;;;5021483;28;20020;-78
2021/11/23 04:09:47;;;;;;;;;;;-0.20;99.90;;;;;;5026836;28;19925;-78
2021/11/23 04:12:13;;;;;;;;;;;-0.10;99.90;;;;;;5022265;28;19983;-78
2021/11/23 04:14:41;;;;;;;;;;;-0.10;99.90;;;;;;5019908;28;20004;-78
2021/11/23 04:17:08;;;;;;;;;;;0.00;99.90;;;;;;5027220;28;20012;-77
2021/11/23 04:19:35;;;;;;;;;;;0.00;99.90;;;;;;5029339;28;19931;-77
2021/11/23 04:22:03;;;;;;;;;;;0.00;99.90;;;;;;5035575;28;19925;-78
2021/11/23 04:24:30;;;;;;;;;;;0.00;99.90;;;;;;5024142;28;20033;-78
2021/11/23 04:26:57;;;;;;;;;;;0.00;99.90;;;;;;5032333;28;19929;-78
2021/11/23 04:29:24;;;;;;;;;;;0.00;99.90;;;;;;5035058;28;19935;-78
2021/11/23 04:31:51;;;;;;;;;;;0.00;99.90;;;;;;5019883;28;19933;-77
2021/11/23 04:34:17;;;;;;;;;;;0.00;99.90;;;;;;5022778;28;19933;-78
2021/11/23 04:36:44;;;;;;;;;;;0.00;99.90;;;;;;5029354;28;19964;-78
2021/11/23 04:39:12;;;;;;;;;;;0.00;99.90;;;;;;5025145;28;19940;-78
2021/11/23 04:41:39;;;;;;;;;;;0.10;99.90;;;;;;5019449;28;19926;-78
2021/11/23 04:44:06;;;;;;;;;;;0.10;99.90;;;;;;5027517;28;19929;-79
2021/11/23 04:46:32;;;;;;;;;;;0.10;99.90;;;;;;5024081;28;20005;-80
2021/11/23 04:48:59;;;;;;;;;;;0.20;99.90;;;;;;5035875;28;19932;-79
2021/11/23 04:51:26;;;;;;;;;;;0.30;99.90;;;;;;5036185;28;19992;-79
2021/11/23 04:53:53;;;;;;;;;;;0.30;99.90;;;;;;5025747;28;19925;-79
2021/11/23 04:56:21;;;;;;;;;;;0.40;99.90;;;;;;5029936;28;19926;-79
2021/11/23 04:58:48;;;;;;;;;;;0.40;99.90;;;;;;5032517;28;20299;-79
2021/11/23 05:01:14;;;;;;;;;;;0.50;99.90;;;;;;5032501;28;20447;-79
2021/11/23 05:03:41;;;;;;;;;;;0.60;99.90;;;;;;5035930;28;19926;-79
2021/11/23 05:06:08;;;;;;;;;;;0.70;99.90;;;;;;5031811;28;20354;-79
2021/11/23 05:08:34;;;;;;;;;;;0.70;99.90;;;;;;5042262;28;19932;-78
2021/11/23 05:11:01;;;;;;;;;;;0.80;99.90;;;;;;5034381;28;20016;-79
2021/11/23 05:13:29;;;;;;;;;;;0.80;99.90;;;;;;5026945;28;19933;-79
2021/11/23 05:15:55;;;;;;;;;;;0.80;99.90;;;;;;5023666;28;19960;-79
2021/11/23 05:18:23;;;;;;;;;;;0.90;99.90;;;;;;5029574;28;19964;-78
2021/11/23 05:20:50;;;;;;;;;;;0.90;99.90;;;;;;5027445;28;19925;-78
2021/11/23 05:23:16;;;;;;;;;;;0.90;99.90;;;;;;5027987;28;19925;-79
2021/11/23 05:25:43;;;;;;;;;;;0.90;99.90;;;;;;5028625;28;19935;-79
2021/11/23 05:28:09;;;;;;;;;;;1.00;99.90;;;;;;5031190;28;20404;-79
2021/11/23 05:30:37;;;;;;;;;;;1.00;99.90;;;;;;5033223;28;19977;-80
2021/11/23 05:33:05;;;;;;;;;;;1.10;99.90;;;;;;5031520;28;20388;-79
2021/11/23 05:35:32;;;;;;;;;;;1.20;99.90;;;;;;5030899;28;19929;-79
2021/11/23 05:37:59;;;;;;;;;;;1.20;99.90;;;;;;5032028;28;19931;-79
2021/11/23 05:40:25;;;;;;;;;;;1.20;99.90;;;;;;5027506;28;19980;-78
2021/11/23 05:42:52;;;;;;;;;;;1.20;99.90;;;;;;5018792;28;19932;-78
2021/11/23 05:45:19;;;;;;;;;;;1.30;99.90;;;;;;5031605;28;20028;-79
2021/11/23 05:47:47;;;;;;;;;;;1.40;99.90;;;;;;5030760;28;20009;-80
2021/11/23 05:50:13;;;;;;;;;;;1.40;99.90;;;;;;5042069;28;19933;-79
2021/11/23 05:52:40;;;;;;;;;;;1.50;99.90;;;;;;5031811;28;19989;-81
2021/11/23 05:55:07;;;;;;;;;;;1.30;99.90;;;;;;5040264;28;19984;-80
2021/11/23 05:57:34;;;;;;;;;;;1.30;99.90;;;;;;5036973;28;19985;-81
2021/11/23 06:00:00;;;;;;;;;;;1.40;99.90;;;;;;5041819;28;20534;-80
2021/11/23 06:02:27;;;;;;;;;;;1.40;99.90;;;;;;5035212;28;19933;-79
2021/11/23 06:04:56;;;;;;;;;;;1.40;99.90;;;;;;5026918;28;19925;-79
2021/11/23 06:07:22;;;;;;;;;;;1.40;99.90;;;;;;5032289;28;19961;-79
2021/11/23 06:09:49;;;;;;;;;;;1.40;99.90;;;;;;5030192;28;19925;-79
2021/11/23 06:12:15;;;;;;;;;;;1.50;99.90;;;;;;5025977;28;19960;-79
2021/11/23 06:14:42;;;;;;;;;;;1.60;99.90;;;;;;5027667;28;19925;-80
2021/11/23 06:17:10;;;;;;;;;;;1.60;99.90;;;;;;5024862;28;19925;-79
2021/11/23 06:19:37;;;;;;;;;;;1.70;99.90;;;;;;5032571;28;19929;-79
2021/11/23 06:22:06;;;;;;;;;;;1.80;99.90;;;;;;5027374;28;19932;-78
2021/11/23 06:24:32;;;;;;;;;;;1.80;99.90;;;;;;5027793;28;19929;-79
2021/11/23 06:26:59;;;;;;;;;;;1.90;99.90;;;;;;5038217;28;20406;-79
2021/11/23 06:29:26;;;;;;;;;;;1.90;99.90;;;;;;5024712;28;19944;-79
2021/11/23 06:31:53;;;;;;;;;;;2.00;99.90;;;;;;5018984;28;19926;-79
2021/11/23 06:34:20;;;;;;;;;;;2.00;99.90;;;;;;5022196;28;19933;-79
2021/11/23 06:36:51;;;;;;;;;;;2.00;99.90;;;;;;5029560;28;20010;-78
2021/11/23 06:39:19;;;;;;;;;;;2.00;99.90;;;;;;5030697;28;20404;-79
2021/11/23 06:41:46;;;;;;;;;;;2.00;99.90;;;;;;5030907;28;19934;-79
2021/11/23 06:44:13;;;;;;;;;;;2.10;99.90;;;;;;5028821;28;20008;-80
2021/11/23 06:46:39;;;;;;;;;;;2.00;99.90;;;;;;5036915;28;19988;-79
2021/11/23 06:49:06;;;;;;;;;;;2.00;99.90;;;;;;5030398;28;19972;-80
2021/11/23 06:51:33;;;;;;;;;;;1.90;99.90;;;;;;5024582;28;19929;-80
2021/11/23 06:54:00;;;;;;;;;;;2.00;99.90;;;;;;5026861;28;19964;-78
2021/11/23 06:56:28;;;;;;;;;;;1.90;99.90;;;;;;5026223;28;19925;-79
2021/11/23 06:58:56;;;;;;;;;;;2.00;99.90;;;;;;5024217;28;19929;-78
2021/11/23 07:01:23;;;;;;;;;;;2.00;99.90;;;;;;5016250;28;19936;-79
2021/11/23 07:03:49;;;;;;;;;;;2.10;99.90;;;;;;5021913;28;20418;-79
2021/11/23 07:06:16;;;;;;;;;;;2.20;99.90;;;;;;5026974;28;19988;-79
2021/11/23 07:08:42;;;;;;;;;;;2.20;99.90;;;;;;5022593;28;20016;-79
2021/11/23 07:11:11;;;;;;;;;;;2.30;99.90;;;;;;5025108;28;20067;-76
2021/11/23 07:13:39;;;;;;;;;;;2.30;99.90;;;;;;5027060;28;19925;-79
2021/11/23 07:16:06;;;;;;;;;;;2.40;99.90;;;;;;5023853;28;19980;-78
2021/11/23 07:18:33;;;;;;;;;;;2.40;99.90;;;;;;5028947;28;19925;-79
2021/11/23 07:20:59;;;;;;;;;;;2.50;99.90;;;;;;5031333;28;19925;-78
2021/11/23 07:23:26;;;;;;;;;;;2.60;99.90;;;;;;5032262;28;20370;-79
2021/11/23 07:25:53;;;;;;;;;;;2.70;99.90;;;;;;5036474;28;19959;-80
2021/11/23 07:28:20;;;;;;;;;;;2.70;99.90;;;;;;5045012;28;20024;-79
2021/11/23 07:30:49;;;;;;;;;;;2.80;99.90;;;;;;5033372;28;19933;-77
2021/11/23 07:33:15;;;;;;;;;;;2.70;99.90;;;;;;5027927;28;20410;-77
2021/11/23 07:35:42;;;;;;;;;;;2.80;99.90;;;;;;5024451;28;20011;-77
2021/11/23 07:38:08;;;;;;;;;;;2.80;99.90;;;;;;5021227;28;20445;-77
2021/11/23 07:40:35;;;;;;;;;;;2.80;99.90;;;;;;5023450;28;20364;-78
2021/11/23 07:43:02;;;;;;;;;;;2.80;99.90;;;;;;5018418;28;20381;-78
2021/11/23 07:45:29;;;;;;;;;;;2.80;99.90;;;;;;5022094;28;20449;-77
2021/11/23 07:47:57;;;;;;;;;;;2.90;99.90;;;;;;5021614;28;20416;-77
2021/11/23 07:50:23;;;;;;;;;;;2.90;99.90;;;;;;5020451;28;19933;-78
2021/11/23 07:52:50;;;;;;;;;;;2.90;99.90;;;;;;5022007;28;19929;-77
2021/11/23 07:55:17;;;;;;;;;;;2.90;99.90;;;;;;5029404;28;20045;-78
2021/11/23 07:57:43;;;;;;;;;;;3.00;99.90;;;;;;5030091;28;19925;-77
2021/11/23 08:00:11;;;;;;;;;;;3.10;99.90;;;;;;5020255;28;20029;-77
2021/11/23 08:02:37;;;;;;;;;;;3.10;99.90;;;;;;5026583;28;20000;-77
2021/11/23 08:05:06;;;;;;;;;;;3.20;99.90;;;;;;5026783;28;19939;-76
2021/11/23 08:07:32;;;;;;;;;;;3.20;99.90;;;;;;5027151;28;19926;-77
2021/11/23 08:09:59;;;;;;;;;;;3.20;99.90;;;;;;5028057;28;19925;-77
2021/11/23 08:12:26;;;;;;;;;;;3.20;99.90;;;;;;5025507;28;20020;-79
2021/11/23 08:14:53;;;;;;;;;;;3.30;99.90;;;;;;5023747;28;20007;-79
2021/11/23 08:17:20;;;;;;;;;;;3.30;99.90;;;;;;5022030;28;20076;-77
2021/11/23 08:19:46;;;;;;;;;;;3.40;99.90;;;;;;5030297;28;20379;-78
2021/11/23 08:24:42;;;;;;;;;;;3.40;99.90;;;;;;4970777;23;19966;-79
2021/11/23 08:27:08;;;;;;;;;;;3.50;99.90;;;;;;4953022;28;20026;-79
2021/11/23 08:29:35;;;;;;;;;;;3.50;99.90;;;;;;4946332;28;19934;-78
2021/11/23 08:32:02;;;;;;;;;;;3.50;99.90;;;;;;4975153;28;20555;-77
2021/11/23 08:34:29;;;;;;;;;;;3.60;99.90;;;;;;4969697;28;19941;-77
2021/11/23 08:36:56;;;;;;;;;;;3.60;99.90;;;;;;4948768;28;20029;-77
2021/11/23 08:39:23;;;;;;;;;;;3.70;99.90;;;;;;4950478;28;20638;-77
2021/11/23 08:41:51;;;;;;;;;;;3.70;99.90;;;;;;4951232;28;19924;-78
2021/11/23 08:44:18;;;;;;;;;;;3.80;99.90;;;;;;4955558;28;19925;-77
2021/11/23 08:46:44;;;;;;;;;;;3.80;99.90;;;;;;4966618;28;20014;-77
2021/11/23 08:49:12;;;;;;;;;;;3.80;99.90;;;;;;4958012;28;20313;-77
2021/11/23 08:51:40;;;;;;;;;;;3.90;99.90;;;;;;4949664;28;20365;-76
2021/11/23 08:54:07;;;;;;;;;;;3.90;99.90;;;;;;4945285;28;19931;-77
2021/11/23 08:56:36;;;;;;;;;;;3.90;99.90;;;;;;4968041;28;19930;-79
2021/11/23 08:59:08;;;;;;;;;;;4.00;99.90;;;;;;4962583;28;19927;-74
2021/11/23 09:01:35;;;;;;;;;;;4.10;99.90;;;;;;4986945;23;19933;-76
2021/11/23 09:04:03;;;;;;;;;;;4.10;99.90;;;;;;5025033;28;19988;-76
2021/11/23 09:06:30;;;;;;;;;;;4.20;99.90;;;;;;5020640;28;20430;-78
2021/11/23 09:08:58;;;;;;;;;;;4.30;99.90;;;;;;5025881;28;20411;-77
2021/11/23 09:11:25;;;;;;;;;;;4.40;99.90;;;;;;5022376;28;19925;-76
2021/11/23 09:13:53;;;;;;;;;;;4.40;99.90;;;;;;5019862;28;19972;-77
2021/11/23 09:16:22;;;;;;;;;;;4.50;99.90;;;;;;5019246;28;19933;-78
2021/11/23 09:18:48;;;;;;;;;;;4.50;99.90;;;;;;5023710;28;19983;-78
2021/11/23 09:21:15;;;;;;;;;;;4.50;99.90;;;;;;5018430;28;20474;-77
2021/11/23 09:23:46;;;;;;;;;;;4.60;99.90;;;;;;5018350;28;19951;-77
2021/11/23 09:26:13;;;;;;;;;;;4.60;99.90;;;;;;5024513;28;20388;-76
2021/11/23 09:28:40;;;;;;;;;;;4.70;99.90;;;;;;5023599;28;19928;-76
2021/11/23 09:31:07;;;;;;;;;;;4.70;99.90;;;;;;5019572;28;19929;-76
2021/11/23 09:33:35;;;;;;;;;;;4.80;99.90;;;;;;5022478;28;19935;-77
2021/11/23 09:36:01;;;;;;;;;;;4.80;99.90;;;;;;5021040;28;19925;-77
2021/11/23 09:38:28;;;;;;;;;;;4.70;99.90;;;;;;5028735;23;20024;-77
2021/11/23 09:40:55;;;;;;;;;;;4.70;99.90;;;;;;5020755;28;20032;-76
2021/11/23 09:43:22;;;;;;;;;;;4.80;99.90;;;;;;5022282;28;19936;-78
2021/11/23 09:45:49;;;;;;;;;;;4.80;99.90;;;;;;5025143;28;19928;-78
2021/11/23 09:48:17;;;;;;;;;;;4.80;99.90;;;;;;5021127;28;19929;-77
2021/11/23 09:50:45;;;;;;;;;;;4.90;99.90;;;;;;5023523;28;20020;-77
2021/11/23 09:53:14;;;;;;;;;;;4.90;99.90;;;;;;5022968;28;19925;-78
2021/11/23 09:55:41;;;;;;;;;;;5.00;99.90;;;;;;5027988;28;19925;-75
2021/11/23 09:58:09;;;;;;;;;;;5.00;99.90;;;;;;5025917;28;20376;-76
2021/11/23 10:00:37;;;;;;;;;;;5.10;99.90;;;;;;5018502;28;19961;-76
2021/11/23 10:03:08;;;;;;;;;;;5.10;99.90;;;;;;5023058;28;19925;-79
2021/11/23 10:05:37;;;;;;;;;;;5.10;99.90;;;;;;5026247;28;20019;-78
2021/11/23 10:08:10;;;;;;;;;;;5.20;99.90;;;;;;5037407;28;19925;-79
2021/11/23 10:10:44;;;;;;;;;;;5.20;99.90;;;;;;5049180;28;19968;-80
2021/11/23 10:13:11;;;;;;;;;;;5.30;99.90;;;;;;5030297;28;19925;-78
2021/11/23 10:15:41;;;;;;;;;;;5.40;99.90;;;;;;5024801;28;19935;-77
2021/11/23 10:18:10;;;;;;;;;;;5.60;99.90;;;;;;5027104;28;19932;-78
2021/11/23 10:20:38;;;;;;;;;;;5.60;99.90;;;;;;5027001;28;19929;-79
2021/11/23 10:23:13;;;;;;;;;;;5.70;99.90;;;;;;5027004;28;19948;-78
2021/11/23 10:25:40;;;;;;;;;;;5.70;99.90;;;;;;5024607;28;19933;-78
2021/11/23 10:28:07;;;;;;;;;;;5.80;99.90;;;;;;5028675;28;20016;-78
2021/11/23 10:30:34;;;;;;;;;;;6.00;99.90;;;;;;5028401;28;20427;-77
2021/11/23 10:33:00;;;;;;;;;;;6.00;99.90;;;;;;5022735;28;20384;-78
2021/11/23 10:35:28;;;;;;;;;;;6.00;99.90;;;;;;5003827;22;20296;-78
2021/11/23 10:37:55;;;;;;;;;;;6.00;99.90;;;;;;5012470;22;19933;-79
2021/11/23 10:40:25;;;;;;;;;;;6.00;99.90;;;;;;5041633;22;20363;-79
2021/11/23 10:43:04;;;;;;;;;;;6.10;99.90;;;;;;5034666;22;19933;-76
2021/11/23 10:45:34;;;;;;;;;;;6.10;99.90;;;;;;5022001;28;19933;-77
2021/11/23 10:48:01;;;;;;;;;;;6.20;99.90;;;;;;5026257;28;20020;-76
2021/11/23 10:50:28;;;;;;;;;;;6.40;99.90;;;;;;5021356;28;19925;-77
2021/11/23 10:52:55;;;;;;;;;;;6.50;99.90;;;;;;5019352;28;20478;-78
2021/11/23 10:55:27;;;;;;;;;;;6.50;99.90;;;;;;5026445;28;19932;-76
2021/11/23 10:57:55;;;;;;;;;;;6.50;99.90;;;;;;5020731;28;19929;-77
2021/11/23 11:00:22;;;;;;;;;;;6.60;99.90;;;;;;5022996;28;20376;-77
2021/11/23 11:02:48;;;;;;;;;;;6.70;99.90;;;;;;5018628;28;19925;-80
2021/11/23 11:05:16;;;;;;;;;;;6.70;99.90;;;;;;5018469;28;20012;-78
2021/11/23 11:07:44;;;;;;;;;;;6.90;99.90;;;;;;5022775;28;19936;-77
2021/11/23 11:10:11;;;;;;;;;;;6.90;99.90;;;;;;5024198;28;19969;-75
2021/11/23 11:12:40;;;;;;;;;;;7.00;99.90;;;;;;5018977;28;19936;-71
2021/11/23 11:15:07;;;;;;;;;;;7.20;99.90;;;;;;5016739;28;19990;-79
2021/11/23 11:17:37;;;;;;;;;;;7.30;99.90;;;;;;5021015;28;19940;-78
2021/11/23 11:20:04;;;;;;;;;;;7.40;99.90;;;;;;5020977;28;20399;-76
2021/11/23 11:22:31;;;;;;;;;;;7.30;99.90;;;;;;5015870;28;20012;-80
2021/11/23 11:25:11;;;;;;;;;;;7.30;99.90;;;;;;5033129;28;20023;-79
2021/11/23 11:27:42;;;;;;;;;;;7.40;99.90;;;;;;5020681;28;19925;-77
2021/11/23 11:30:19;;;;;;;;;;;7.50;99.90;;;;;;5015024;28;20017;-77
2021/11/23 11:32:47;;;;;;;;;;;7.50;99.90;;;;;;5017967;28;19925;-77
2021/11/23 11:35:21;;;;;;;;;;;7.60;99.90;;;;;;5022828;28;19940;-77
2021/11/23 11:37:47;;;;;;;;;;;7.60;99.90;;;;;;5024402;28;20015;-77
2021/11/23 11:40:20;;;;;;;;;;;7.70;99.90;;;;;;5020898;28;19926;-76
2021/11/23 11:42:50;;;;;;;;;;;7.90;99.90;;;;;;5018116;28;19933;-77
2021/11/23 11:45:18;;;;;;;;;;;8.10;99.90;;;;;;5025529;28;19932;-77
2021/11/23 11:47:46;;;;;;;;;;;8.30;99.90;;;;;;5029252;28;20381;-77
2021/11/23 11:50:17;;;;;;;;;;;8.40;99.90;;;;;;5026179;28;19925;-77
2021/11/23 11:53:00;;;;;;;;;;;8.30;99.90;;;;;;5023304;28;19931;-76
2021/11/23 11:55:29;;;;;;;;;;;8.20;99.90;;;;;;5028577;28;19933;-77
2021/11/23 11:57:58;;;;;;;;;;;8.20;99.90;;;;;;5023111;28;19932;-77
2021/11/23 12:00:30;;;;;;;;;;;8.30;99.90;;;;;;5020866;28;19933;-77
2021/11/23 12:03:02;;;;;;;;;;;8.30;99.90;;;;;;5019721;28;20003;-72
2021/11/23 12:05:52;;;;;;;;;;;8.20;99.90;;;;;;5021089;28;19933;-72
2021/11/23 12:08:23;;;;;;;;;;;8.20;99.90;;;;;;5017517;28;19965;-76
2021/11/23 12:10:50;;;;;;;;;;;8.10;99.90;;;;;;5070086;22;19925;-78
2021/11/23 12:13:24;;;;;;;;;;;7.90;99.90;;;;;;5067642;28;19939;-75
2021/11/23 12:16:00;;;;;;;;;;;7.90;99.90;;;;;;5070950;28;19963;-76
2021/11/23 12:18:32;;;;;;;;;;;8.00;99.90;;;;;;5067627;28;20376;-76
2021/11/23 12:21:02;;;;;;;;;;;8.10;99.90;;;;;;5064106;28;19928;-75
2021/11/23 12:23:35;;;;;;;;;;;8.30;99.90;;;;;;5064715;28;19925;-75
2021/11/23 12:26:06;;;;;;;;;;;8.50;99.90;;;;;;5068295;28;20284;-74
2021/11/23 12:28:34;;;;;;;;;;;8.50;99.90;;;;;;5066916;28;19932;-74
2021/11/23 12:33:44;;;;;;;;;;;8.50;99.90;;;;;;4993795;23;19931;-75
2021/11/23 12:36:12;;;;;;;;;;;8.60;99.90;;;;;;5016575;28;19925;-75
2021/11/23 12:38:38;;;;;;;;;;;8.70;99.90;;;;;;4968330;22;1878352;-75
2021/11/23 12:41:10;;;;;;;;;;;8.70;99.90;;;;;;5020753;28;20152;-75
2021/11/23 12:43:38;;;;;;;;;;;8.60;99.90;;;;;;5024047;22;19933;-76
2021/11/23 12:46:12;;;;;;;;;;;8.70;99.90;;;;;;5021975;28;19925;-76
2021/11/23 12:48:40;;;;;;;;;;;8.70;99.90;;;;;;5028011;28;19925;-77
2021/11/23 12:51:17;;;;;;;;;;;8.70;99.90;;;;;;5020397;28;19957;-76
2021/11/23 12:53:52;;;;;;;;;;;8.60;99.90;;;;;;5025937;28;19932;-75
2021/11/23 12:56:19;;;;;;;;;;;8.50;99.90;;;;;;5037226;22;19948;-77
2021/11/23 12:58:47;;;;;;;;;;;8.40;99.90;;;;;;5042333;28;19983;-76
2021/11/23 13:01:27;;;;;;;;;;;8.30;99.90;;;;;;5038502;28;19925;-77
2021/11/23 13:06:22;;;;;;;;;;;8.10;99.90;;;;;;5034016;22;20515;-80
2021/11/23 13:11:47;;;;;;;;;;;8.10;99.90;;;;;;5013778;28;20335;-76
2021/11/23 13:14:19;;;;;;;;;;;8.20;99.90;;;;;;5022414;28;20415;-76
2021/11/23 13:16:50;;;;;;;;;;;8.30;99.90;;;;;;5025051;28;19932;-76
2021/11/23 13:19:17;;;;;;;;;;;8.40;99.90;;;;;;5021792;28;19929;-76
2021/11/23 13:21:43;;;;;;;;;;;8.40;99.90;;;;;;5031204;28;20010;-75
2021/11/23 13:24:11;;;;;;;;;;;8.40;99.90;;;;;;5025280;28;20043;-75
2021/11/23 13:26:38;;;;;;;;;;;8.40;99.90;;;;;;5019343;28;19961;-75
2021/11/23 13:29:05;;;;;;;;;;;8.30;99.90;;;;;;5017442;28;19934;-77
2021/11/23 13:31:35;;;;;;;;;;;8.30;99.90;;;;;;5022407;28;19925;-75
2021/11/23 13:34:02;;;;;;;;;;;8.30;99.90;;;;;;5019227;28;19925;-74
2021/11/23 13:36:30;;;;;;;;;;;8.40;99.90;;;;;;5015649;28;20455;-76
2021/11/23 13:39:09;;;;;;;;;;;8.40;99.90;;;;;;5023215;28;19933;-77
2021/11/23 13:41:36;;;;;;;;;;;8.40;99.90;;;;;;5026055;28;20016;-77
2021/11/23 13:44:05;;;;;;;;;;;8.40;99.90;;;;;;5026666;28;19925;-76
2021/11/23 13:46:40;;;;;;;;;;;8.50;99.90;;;;;;5023051;28;20037;-77
2021/11/23 13:49:08;;;;;;;;;;;8.50;99.90;;;;;;5028163;28;19968;-77
2021/11/23 13:51:35;;;;;;;;;;;8.40;99.90;;;;;;5025104;28;19925;-81
2021/11/23 13:54:04;;;;;;;;;;;8.40;99.90;;;;;;5031874;28;19932;-77
2021/11/23 13:56:31;;;;;;;;;;;8.40;99.90;;;;;;5022420;28;19987;-77
2021/11/23 13:58:59;;;;;;;;;;;8.30;99.90;;;;;;5024637;28;19933;-77
2021/11/23 14:01:35;;;;;;;;;;;8.30;99.90;;;;;;5018775;28;20007;-79
2021/11/23 14:04:12;;;;;;;;;;;8.40;99.90;;;;;;5017753;28;19933;-74
2021/11/23 14:06:57;;;;;;;;;;;8.50;99.90;;;;;;5026282;28;19933;-76
2021/11/23 14:09:24;;;;;;;;;;;8.60;99.90;;;;;;5015892;28;20362;-74
2021/11/23 14:11:56;;;;;;;;;;;8.60;99.90;;;;;;5018436;28;20012;-75
2021/11/23 14:14:23;;;;;;;;;;;8.60;99.90;;;;;;5020856;28;20404;-73
2021/11/23 14:16:52;;;;;;;;;;;8.50;99.90;;;;;;5024283;28;19929;-74
2021/11/23 14:19:20;;;;;;;;;;;8.50;99.90;;;;;;5017597;28;19941;-72
2021/11/23 14:21:53;;;;;;;;;;;8.60;99.90;;;;;;5016008;28;19932;-74
2021/11/23 14:24:20;;;;;;;;;;;8.60;99.90;;;;;;5018568;28;19977;-79
2021/11/23 14:26:49;;;;;;;;;;;8.50;99.90;;;;;;5014513;28;20056;-74
2021/11/23 14:29:17;;;;;;;;;;;8.60;99.90;;;;;;5011598;28;19984;-78
2021/11/23 14:31:47;;;;;;;;;;;8.50;99.90;;;;;;5023819;28;19932;-77
2021/11/23 14:34:15;;;;;;;;;;;8.50;99.90;;;;;;5014762;28;20006;-78
2021/11/23 14:36:46;;;;;;;;;;;8.40;99.90;;;;;;5025252;28;19931;-77
2021/11/23 14:39:14;;;;;;;;;;;8.30;99.90;;;;;;5022575;28;19940;-76
2021/11/23 14:41:41;;;;;;;;;;;8.30;99.90;;;;;;5014605;28;20351;-76
2021/11/23 14:44:09;;;;;;;;;;;8.30;99.90;;;;;;5014336;28;19932;-78